createdAt,value
2023-07-18T00:01:32.539Z,20.48
2023-07-18T00:04:03.661Z,20.45
2023-07-18T00:06:34.921Z,20.40
2023-07-18T00:09:05.935Z,20.36
2023-07-18T00:11:37.868Z,20.33
2023-07-18T00:14:09.412Z,20.30
2023-07-18T00:16:41.022Z,20.26
2023-07-18T00:19:13.443Z,20.22
2023-07-18T00:21:44.896Z,20.17
2023-07-18T00:24:16.384Z,20.14
2023-07-18T00:26:47.393Z,20.10
2023-07-18T00:29:18.645Z,20.08
2023-07-18T00:31:50.478Z,20.07
2023-07-18T00:34:21.541Z,20.05
2023-07-18T00:36:56.512Z,20.02
2023-07-18T00:39:26.093Z,20.00
2023-07-18T00:41:57.066Z,19.98
2023-07-18T00:44:28.107Z,19.96
2023-07-18T00:46:59.523Z,19.95
2023-07-18T00:49:31.183Z,19.95
2023-07-18T00:52:03.864Z,19.94
2023-07-18T00:54:35.008Z,19.94
2023-07-18T00:57:07.857Z,19.93
2023-07-18T00:59:40.068Z,19.90
2023-07-18T01:02:11.750Z,19.88
2023-07-18T01:04:44.512Z,19.86
2023-07-18T01:07:16.900Z,19.84
2023-07-18T01:09:48.742Z,19.83
2023-07-18T01:12:19.892Z,19.81
2023-07-18T01:14:51.033Z,19.80
2023-07-18T01:17:23.636Z,19.81
2023-07-18T01:19:54.849Z,19.81
2023-07-18T01:22:26.046Z,19.83
2023-07-18T01:24:57.165Z,19.84
2023-07-18T01:27:28.697Z,19.85
2023-07-18T01:30:00.188Z,19.87
2023-07-18T01:32:31.813Z,19.88
2023-07-18T01:35:06.677Z,19.90
2023-07-18T01:37:38.932Z,19.96
2023-07-18T01:40:13.986Z,20.03
2023-07-18T01:42:45.214Z,20.08
2023-07-18T01:45:16.448Z,20.11
2023-07-18T01:47:48.863Z,20.10
2023-07-18T01:50:20.867Z,20.11
2023-07-18T01:52:52.157Z,20.11
2023-07-18T01:55:24.403Z,20.12
2023-07-18T01:57:55.758Z,20.12
2023-07-18T02:00:27.003Z,20.14
2023-07-18T02:02:58.125Z,20.13
2023-07-18T02:05:31.432Z,20.11
2023-07-18T02:08:02.780Z,20.06
2023-07-18T02:10:33.940Z,19.99
2023-07-18T02:13:06.621Z,19.93
2023-07-18T02:15:37.999Z,19.87
2023-07-18T02:18:09.282Z,19.83
2023-07-18T02:20:40.466Z,19.77
2023-07-18T02:23:13.669Z,19.73
2023-07-18T02:25:44.897Z,19.68
2023-07-18T02:28:16.475Z,19.65
2023-07-18T02:30:47.661Z,19.61
2023-07-18T02:33:18.749Z,19.59
2023-07-18T02:35:52.970Z,19.58
2023-07-18T02:38:24.043Z,19.57
2023-07-18T02:40:55.764Z,19.56
2023-07-18T02:43:27.729Z,19.54
2023-07-18T02:45:58.773Z,19.50
2023-07-18T02:48:29.747Z,19.44
2023-07-18T02:51:00.991Z,19.37
2023-07-18T02:53:32.042Z,19.33
2023-07-18T02:56:03.205Z,19.28
2023-07-18T02:58:34.191Z,19.22
2023-07-18T03:01:06.354Z,19.18
2023-07-18T03:03:39.924Z,19.15
2023-07-18T03:06:11.507Z,19.12
2023-07-18T03:08:43.179Z,19.11
2023-07-18T03:11:14.328Z,19.11
2023-07-18T03:13:45.461Z,19.09
2023-07-18T03:16:16.887Z,19.04
2023-07-18T03:18:48.058Z,19.01
2023-07-18T03:21:19.629Z,19.00
2023-07-18T03:23:51.062Z,18.97
2023-07-18T03:26:22.415Z,18.96
2023-07-18T03:28:56.428Z,18.93
2023-07-18T03:31:27.525Z,18.91
2023-07-18T03:33:58.712Z,18.89
2023-07-18T03:36:29.904Z,18.87
2023-07-18T03:39:01.208Z,18.82
2023-07-18T03:41:32.865Z,18.79
2023-07-18T03:44:04.940Z,18.75
2023-07-18T03:46:36.256Z,18.72
2023-07-18T03:49:08.347Z,18.70
2023-07-18T03:51:39.888Z,18.69
2023-07-18T03:54:10.942Z,18.68
2023-07-18T03:56:42.814Z,18.72
2023-07-18T03:59:14.622Z,18.84
2023-07-18T04:01:45.782Z,19.00
2023-07-18T04:04:17.002Z,19.16
2023-07-18T04:06:48.170Z,19.34
2023-07-18T04:09:19.291Z,19.52
2023-07-18T04:11:50.567Z,19.70
2023-07-18T04:14:21.852Z,19.90
2023-07-18T04:16:53.538Z,20.07
2023-07-18T04:19:24.655Z,20.23
2023-07-18T04:21:55.723Z,20.41
2023-07-18T04:24:26.840Z,20.60
2023-07-18T04:26:57.815Z,20.83
2023-07-18T04:29:29.665Z,21.13
2023-07-18T04:32:00.711Z,21.48
2023-07-18T04:34:31.932Z,21.95
2023-07-18T04:37:02.881Z,22.55
2023-07-18T04:39:33.933Z,23.19
2023-07-18T04:42:05.641Z,23.87
2023-07-18T04:44:37.868Z,24.60
2023-07-18T04:47:10.884Z,25.34
2023-07-18T04:49:42.803Z,26.04
2023-07-18T04:52:13.780Z,26.73
2023-07-18T04:54:45.239Z,27.36
2023-07-18T04:57:16.233Z,28.02
2023-07-18T04:59:48.211Z,28.73
2023-07-18T05:02:19.716Z,29.44
2023-07-18T05:04:50.804Z,30.15
2023-07-18T05:07:22.764Z,30.66
2023-07-18T05:09:53.860Z,31.18
2023-07-18T05:12:25.092Z,31.78
2023-07-18T05:14:56.417Z,32.33
2023-07-18T05:17:30.559Z,32.87
2023-07-18T05:20:00.096Z,33.47
2023-07-18T05:22:31.148Z,34.00
2023-07-18T05:25:03.271Z,34.60
2023-07-18T05:27:34.419Z,35.20
2023-07-18T05:30:06.783Z,35.80
2023-07-18T05:32:37.873Z,36.34
2023-07-18T05:35:12.621Z,36.79
2023-07-18T05:37:44.698Z,37.26
2023-07-18T05:40:19.243Z,37.67
2023-07-18T05:42:53.030Z,38.11
2023-07-18T05:45:24.274Z,38.54
2023-07-18T05:47:55.641Z,38.91
2023-07-18T05:50:26.847Z,39.20
2023-07-18T05:52:57.847Z,39.42
2023-07-18T05:55:29.017Z,39.62
2023-07-18T05:58:00.106Z,39.81
2023-07-18T06:00:31.605Z,40.03
2023-07-18T06:03:02.745Z,40.28
2023-07-18T06:05:33.846Z,40.51
2023-07-18T06:08:06.430Z,40.73
2023-07-18T06:10:38.859Z,40.89
2023-07-18T06:13:09.946Z,40.99
2023-07-18T06:15:41.009Z,41.10
2023-07-18T06:18:11.961Z,41.26
2023-07-18T06:20:45.135Z,41.42
2023-07-18T06:23:16.356Z,41.59
2023-07-18T06:25:47.439Z,41.68
2023-07-18T06:28:18.386Z,41.79
2023-07-18T06:30:50.939Z,41.89
2023-07-18T06:33:22.102Z,41.86
2023-07-18T06:35:56.471Z,41.87
2023-07-18T06:38:28.497Z,41.93
2023-07-18T06:40:59.465Z,41.94
2023-07-18T06:43:30.708Z,41.93
2023-07-18T06:46:04.385Z,41.86
2023-07-18T06:48:35.391Z,41.85
2023-07-18T06:51:08.075Z,41.48
2023-07-18T06:53:39.425Z,40.97
2023-07-18T06:56:12.477Z,40.64
2023-07-18T06:58:46.196Z,40.09
2023-07-18T07:01:25.433Z,39.49
2023-07-18T07:04:14.161Z,38.81
2023-07-18T07:06:45.575Z,38.10
2023-07-18T07:09:16.659Z,37.42
2023-07-18T07:11:47.784Z,36.83
2023-07-18T07:14:19.117Z,36.17
2023-07-18T07:16:50.294Z,35.64
2023-07-18T07:19:21.388Z,35.18
2023-07-18T07:21:52.545Z,34.88
2023-07-18T07:24:23.631Z,34.67
2023-07-18T07:26:54.735Z,34.53
2023-07-18T07:29:26.380Z,34.41
2023-07-18T07:31:57.330Z,34.33
2023-07-18T07:34:30.622Z,34.19
2023-07-18T07:37:01.693Z,33.92
2023-07-18T07:39:32.809Z,33.66
2023-07-18T07:42:04.062Z,33.51
2023-07-18T07:44:35.603Z,33.39
2023-07-18T07:47:07.693Z,33.30
2023-07-18T07:49:38.828Z,33.10
2023-07-18T07:52:10.748Z,32.85
2023-07-18T07:54:42.267Z,32.65
2023-07-18T07:57:13.321Z,32.49
2023-07-18T07:59:45.247Z,32.35
2023-07-18T08:02:16.583Z,32.19
2023-07-18T08:04:48.102Z,32.08
2023-07-18T08:07:20.029Z,31.99
2023-07-18T08:09:51.481Z,31.92
2023-07-18T08:12:22.829Z,31.85
2023-07-18T08:14:54.497Z,31.76
2023-07-18T08:17:26.738Z,31.68
2023-07-18T08:19:58.116Z,31.63
2023-07-18T08:22:29.272Z,31.53
2023-07-18T08:25:00.268Z,31.47
2023-07-18T08:27:31.226Z,31.46
2023-07-18T08:30:02.569Z,31.50
2023-07-18T08:32:33.902Z,31.50
2023-07-18T08:35:05.622Z,31.50
2023-07-18T08:37:36.923Z,31.48
2023-07-18T08:40:11.780Z,31.42
2023-07-18T08:42:44.768Z,31.38
2023-07-18T08:45:18.294Z,31.32
2023-07-18T08:47:57.535Z,31.28
2023-07-18T08:50:32.321Z,31.24
2023-07-18T08:53:03.451Z,31.20
2023-07-18T08:55:34.719Z,31.16
2023-07-18T08:58:06.404Z,31.12
2023-07-18T09:00:37.449Z,31.06
2023-07-18T09:03:08.529Z,31.07
2023-07-18T09:05:40.638Z,31.07
2023-07-18T09:08:11.667Z,31.05
2023-07-18T09:10:42.708Z,31.01
2023-07-18T09:13:13.740Z,30.97
2023-07-18T09:15:44.754Z,30.97
2023-07-18T09:18:19.830Z,30.92
2023-07-18T09:20:50.870Z,30.81
2023-07-18T09:23:22.220Z,30.71
2023-07-18T09:25:53.363Z,30.63
2023-07-18T09:28:24.814Z,30.56
2023-07-18T09:30:55.852Z,30.46
2023-07-18T09:33:30.180Z,30.37
2023-07-18T09:36:01.853Z,30.30
2023-07-18T09:38:33.752Z,30.29
2023-07-18T09:41:06.177Z,30.29
2023-07-18T09:43:38.889Z,30.27
2023-07-18T09:46:12.664Z,30.25
2023-07-18T09:48:45.549Z,30.19
2023-07-18T09:51:22.034Z,30.12
2023-07-18T09:53:57.603Z,30.06
2023-07-18T09:56:35.838Z,30.05
2023-07-18T09:59:09.733Z,30.04
2023-07-18T10:01:41.613Z,30.07
2023-07-18T10:04:13.335Z,30.05
2023-07-18T10:06:45.276Z,30.03
2023-07-18T10:09:17.774Z,30.00
2023-07-18T10:12:21.762Z,29.97
2023-07-18T10:14:58.038Z,29.89
2023-07-18T10:17:41.714Z,29.82
2023-07-18T10:20:21.235Z,29.76
2023-07-18T10:22:58.592Z,29.70
2023-07-18T10:25:32.187Z,29.66
2023-07-18T10:28:05.070Z,29.62
2023-07-18T10:30:43.000Z,29.58
2023-07-18T10:33:14.715Z,29.50
2023-07-18T10:35:45.998Z,29.47
2023-07-18T10:38:18.066Z,29.47
2023-07-18T10:40:50.137Z,29.47
2023-07-18T10:43:21.889Z,29.45
2023-07-18T10:45:53.805Z,29.41
2023-07-18T10:48:25.005Z,29.40
2023-07-18T10:50:56.862Z,29.40
2023-07-18T10:53:30.377Z,29.35
2023-07-18T10:56:02.147Z,29.30
2023-07-18T10:58:33.526Z,29.24
2023-07-18T11:01:05.015Z,29.19
2023-07-18T11:03:37.486Z,29.13
2023-07-18T11:06:09.691Z,29.08
2023-07-18T11:08:41.132Z,29.06
2023-07-18T11:11:12.273Z,29.03
2023-07-18T11:13:45.182Z,29.00
2023-07-18T11:16:18.592Z,28.98
2023-07-18T11:18:55.649Z,28.98
2023-07-18T11:21:27.375Z,28.95
2023-07-18T11:23:59.201Z,28.95
2023-07-18T11:26:32.226Z,28.95
2023-07-18T11:29:06.114Z,28.94
2023-07-18T11:31:45.386Z,28.95
2023-07-18T11:34:25.735Z,28.95
2023-07-18T11:37:18.356Z,28.95
2023-07-18T11:39:53.302Z,28.91
2023-07-18T11:42:24.588Z,28.84
2023-07-18T11:44:59.930Z,28.79
2023-07-18T11:47:31.445Z,28.75
2023-07-18T11:50:10.022Z,28.71
2023-07-18T11:52:41.974Z,28.60
2023-07-18T11:55:13.537Z,28.51
2023-07-18T11:57:44.923Z,28.44
2023-07-18T12:00:18.296Z,28.37
2023-07-18T12:02:50.141Z,28.32
2023-07-18T12:05:24.085Z,28.29
2023-07-18T12:07:56.827Z,28.23
2023-07-18T12:10:27.884Z,28.18
2023-07-18T12:12:59.026Z,28.15
2023-07-18T12:15:30.577Z,28.14
2023-07-18T12:18:01.889Z,28.12
2023-07-18T12:20:33.089Z,28.09
2023-07-18T12:23:04.281Z,28.05
2023-07-18T12:25:35.560Z,28.01
2023-07-18T12:28:09.750Z,28.01
2023-07-18T12:30:41.066Z,28.01
2023-07-18T12:33:13.764Z,28.01
2023-07-18T12:35:45.010Z,28.03
2023-07-18T12:38:16.407Z,28.03
2023-07-18T12:40:47.549Z,28.03
2023-07-18T12:43:18.693Z,28.03
2023-07-18T12:45:50.061Z,28.02
2023-07-18T12:48:21.665Z,28.01
2023-07-18T12:50:53.871Z,28.01
2023-07-18T12:53:24.952Z,27.97
2023-07-18T12:55:56.407Z,27.95
2023-07-18T12:58:27.514Z,27.93
2023-07-18T13:00:58.586Z,27.89
2023-07-18T13:03:32.627Z,27.83
2023-07-18T13:06:07.184Z,27.75
2023-07-18T13:08:38.240Z,27.68
2023-07-18T13:11:09.554Z,27.62
2023-07-18T13:13:41.290Z,27.56
2023-07-18T13:16:12.640Z,27.52
2023-07-18T13:18:43.664Z,27.49
2023-07-18T13:21:15.343Z,27.42
2023-07-18T13:23:46.776Z,27.38
2023-07-18T13:26:21.080Z,27.34
2023-07-18T13:28:52.514Z,27.30
2023-07-18T13:31:23.687Z,27.26
2023-07-18T13:33:55.344Z,27.24
2023-07-18T13:36:26.786Z,27.17
2023-07-18T13:38:57.923Z,27.11
2023-07-18T13:41:29.161Z,27.08
2023-07-18T13:44:00.209Z,27.06
2023-07-18T13:46:31.332Z,27.04
2023-07-18T13:49:02.927Z,27.03
2023-07-18T13:51:34.370Z,27.00
2023-07-18T13:54:05.531Z,26.93
2023-07-18T13:56:36.497Z,26.86
2023-07-18T13:59:07.815Z,26.80
2023-07-18T14:01:38.872Z,26.74
2023-07-18T14:04:10.303Z,26.72
2023-07-18T14:06:41.356Z,26.72
2023-07-18T14:09:12.300Z,26.74
2023-07-18T14:11:43.392Z,26.76
2023-07-18T14:14:14.482Z,26.77
2023-07-18T14:16:45.518Z,26.78
2023-07-18T14:19:16.517Z,26.78
2023-07-18T14:21:47.494Z,26.75
2023-07-18T14:24:18.505Z,26.72
2023-07-18T14:26:49.408Z,26.69
2023-07-18T14:29:22.970Z,26.67
2023-07-18T14:31:55.564Z,26.66
2023-07-18T14:34:26.610Z,26.64
2023-07-18T14:36:57.588Z,26.64
2023-07-18T14:39:28.703Z,26.65
2023-07-18T14:42:00.142Z,26.65
2023-07-18T14:44:31.209Z,26.65
2023-07-18T14:47:02.217Z,26.64
2023-07-18T14:49:33.241Z,26.63
2023-07-18T14:52:04.475Z,26.63
2023-07-18T14:54:35.800Z,26.63
2023-07-18T14:57:07.358Z,26.64
2023-07-18T14:59:38.607Z,26.63
2023-07-18T15:02:11.715Z,26.63
2023-07-18T15:04:42.752Z,26.61
2023-07-18T15:07:13.803Z,26.60
2023-07-18T15:09:46.143Z,26.60
2023-07-18T15:12:17.179Z,26.59
2023-07-18T15:14:50.756Z,26.59
2023-07-18T15:17:22.070Z,26.61
2023-07-18T15:19:53.361Z,26.62
2023-07-18T15:22:24.927Z,26.61
2023-07-18T15:24:56.319Z,26.58
2023-07-18T15:27:30.192Z,26.54
2023-07-18T15:30:01.322Z,26.51
2023-07-18T15:32:32.588Z,26.46
2023-07-18T15:35:05.132Z,26.44
2023-07-18T15:37:38.747Z,26.42
2023-07-18T15:40:12.342Z,26.42
2023-07-18T15:42:43.876Z,26.43
2023-07-18T15:45:15.194Z,26.42
2023-07-18T15:47:47.438Z,26.40
2023-07-18T15:50:20.868Z,26.35
2023-07-18T15:52:51.918Z,26.33
2023-07-18T15:55:23.458Z,26.32
2023-07-18T15:57:54.508Z,26.33
2023-07-18T16:00:26.055Z,26.33
2023-07-18T16:02:57.598Z,26.31
2023-07-18T16:05:28.957Z,26.29
2023-07-18T16:08:02.363Z,26.26
2023-07-18T16:10:33.410Z,26.23
2023-07-18T16:13:04.344Z,26.19
2023-07-18T16:15:35.519Z,26.15
2023-07-18T16:18:06.803Z,26.11
2023-07-18T16:20:38.028Z,26.07
2023-07-18T16:23:09.128Z,26.05
2023-07-18T16:25:40.425Z,26.01
2023-07-18T16:28:12.296Z,25.93
2023-07-18T16:30:43.977Z,25.88
2023-07-18T16:33:15.206Z,25.83
2023-07-18T16:35:48.714Z,25.77
2023-07-18T16:38:21.993Z,25.74
2023-07-18T16:40:58.684Z,25.70
2023-07-18T16:43:31.070Z,25.67
2023-07-18T16:46:03.301Z,25.63
2023-07-18T16:48:34.356Z,25.60
2023-07-18T16:51:08.573Z,25.56
2023-07-18T16:53:39.657Z,25.52
2023-07-18T16:56:13.060Z,25.48
2023-07-18T16:58:45.917Z,25.43
2023-07-18T17:01:17.205Z,25.38
2023-07-18T17:03:48.493Z,25.33
2023-07-18T17:06:19.889Z,25.30
2023-07-18T17:08:51.563Z,25.26
2023-07-18T17:11:22.854Z,25.22
2023-07-18T17:13:55.273Z,25.18
2023-07-18T17:16:26.694Z,25.13
2023-07-18T17:18:57.824Z,25.06
2023-07-18T17:21:29.962Z,24.98
2023-07-18T17:24:01.149Z,24.91
2023-07-18T17:26:33.407Z,24.84
2023-07-18T17:29:04.394Z,24.76
2023-07-18T17:31:35.694Z,24.70
2023-07-18T17:34:06.845Z,24.63
2023-07-18T17:36:38.004Z,24.57
2023-07-18T17:39:09.241Z,24.53
2023-07-18T17:41:40.409Z,24.49
2023-07-18T17:44:11.578Z,24.45
2023-07-18T17:46:43.088Z,24.39
2023-07-18T17:49:14.524Z,24.34
2023-07-18T17:51:46.877Z,24.31
2023-07-18T17:54:18.137Z,24.26
2023-07-18T17:56:49.546Z,24.21
2023-07-18T17:59:20.697Z,24.18
2023-07-18T18:01:51.949Z,24.14
2023-07-18T18:04:23.351Z,24.11
2023-07-18T18:06:54.804Z,24.08
2023-07-18T18:09:26.154Z,24.05
2023-07-18T18:11:57.759Z,24.00
2023-07-18T18:14:31.431Z,23.96
2023-07-18T18:17:02.937Z,23.92
2023-07-18T18:19:36.082Z,23.87
2023-07-18T18:22:07.790Z,23.82
2023-07-18T18:24:39.085Z,23.77
2023-07-18T18:27:10.615Z,23.71
2023-07-18T18:29:41.739Z,23.64
2023-07-18T18:32:13.464Z,23.58
2023-07-18T18:34:56.843Z,23.51
2023-07-18T18:37:36.084Z,23.43
2023-07-18T18:40:08.758Z,23.34
2023-07-18T18:42:39.911Z,23.27
2023-07-18T18:45:12.406Z,23.20
2023-07-18T18:47:44.225Z,23.14
2023-07-18T18:50:17.225Z,23.06
2023-07-18T18:52:48.477Z,22.99
2023-07-18T18:55:21.090Z,22.91
2023-07-18T18:57:53.493Z,22.83
2023-07-18T19:00:24.648Z,22.76
2023-07-18T19:02:58.765Z,22.68
2023-07-18T19:05:31.804Z,22.61
2023-07-18T19:08:02.924Z,22.52
2023-07-18T19:10:33.971Z,22.44
2023-07-18T19:13:05.247Z,22.37
2023-07-18T19:15:36.586Z,22.30
2023-07-18T19:18:08.017Z,22.23
2023-07-18T19:20:39.093Z,22.16
2023-07-18T19:23:10.758Z,22.09
2023-07-18T19:25:41.976Z,22.02
2023-07-18T19:28:13.219Z,21.96
2023-07-18T19:30:44.402Z,21.89
2023-07-18T19:33:15.731Z,21.84
2023-07-18T19:35:48.202Z,21.79
2023-07-18T19:38:19.487Z,21.73
2023-07-18T19:40:50.462Z,21.68
2023-07-18T19:43:21.598Z,21.62
2023-07-18T19:45:52.822Z,21.57
2023-07-18T19:48:24.114Z,21.51
2023-07-18T19:50:55.065Z,21.43
2023-07-18T19:53:27.851Z,21.37
2023-07-18T19:56:00.640Z,21.30
2023-07-18T19:58:32.233Z,21.24
2023-07-18T20:01:03.398Z,21.19
2023-07-18T20:03:48.013Z,21.15
2023-07-18T20:06:30.409Z,21.10
2023-07-18T20:09:02.064Z,21.06
2023-07-18T20:11:33.157Z,21.02
2023-07-18T20:14:04.912Z,20.97
2023-07-18T20:16:37.199Z,20.93
2023-07-18T20:19:08.698Z,20.88
2023-07-18T20:21:43.332Z,20.83
2023-07-18T20:24:14.666Z,20.78
2023-07-18T20:26:46.032Z,20.73
2023-07-18T20:29:17.676Z,20.69
2023-07-18T20:31:49.383Z,20.65
2023-07-18T20:34:20.725Z,20.62
2023-07-18T20:36:52.138Z,20.59
2023-07-18T20:39:23.727Z,20.57
2023-07-18T20:41:54.698Z,20.54
2023-07-18T20:44:25.880Z,20.52
2023-07-18T20:46:56.937Z,20.48
2023-07-18T20:49:28.479Z,20.45
2023-07-18T20:51:59.934Z,20.40
2023-07-18T20:54:36.092Z,20.35
2023-07-18T20:57:08.601Z,20.32
2023-07-18T20:59:39.649Z,20.27
2023-07-18T21:02:10.861Z,20.23
2023-07-18T21:04:42.527Z,20.16
2023-07-18T21:07:13.774Z,20.11
2023-07-18T21:09:45.215Z,20.06
2023-07-18T21:12:19.027Z,20.00
2023-07-18T21:14:50.373Z,19.95
2023-07-18T21:17:21.618Z,19.89
2023-07-18T21:19:52.871Z,19.83
2023-07-18T21:22:24.266Z,19.77
2023-07-18T21:24:55.486Z,19.72
2023-07-18T21:27:27.186Z,19.66
2023-07-18T21:29:58.761Z,19.61
2023-07-18T21:32:30.141Z,19.56
2023-07-18T21:35:01.609Z,19.52
2023-07-18T21:37:32.929Z,19.47
2023-07-18T21:40:04.942Z,19.42
2023-07-18T21:42:36.679Z,19.38
2023-07-18T21:45:08.930Z,19.33
2023-07-18T21:47:40.310Z,19.29
2023-07-18T21:50:11.859Z,19.25
2023-07-18T21:52:44.542Z,19.21
2023-07-18T21:55:15.885Z,19.17
2023-07-18T21:57:47.003Z,19.12
2023-07-18T22:00:19.378Z,19.06
2023-07-18T22:02:50.824Z,19.02
2023-07-18T22:05:22.593Z,18.97
2023-07-18T22:07:53.576Z,18.91
2023-07-18T22:10:25.087Z,18.85
2023-07-18T22:12:56.338Z,18.80
2023-07-18T22:15:28.299Z,18.75
2023-07-18T22:18:08.880Z,18.71
2023-07-18T22:20:47.961Z,18.66
2023-07-18T22:23:19.358Z,18.61
2023-07-18T22:26:03.866Z,18.57
2023-07-18T22:28:41.910Z,18.52
2023-07-18T22:31:14.533Z,18.49
2023-07-18T22:33:46.314Z,18.45
2023-07-18T22:36:17.821Z,18.40
2023-07-18T22:38:49.264Z,18.36
2023-07-18T22:41:21.086Z,18.32
2023-07-18T22:43:52.589Z,18.28
2023-07-18T22:46:23.792Z,18.25
2023-07-18T22:48:55.062Z,18.22
2023-07-18T22:51:26.491Z,18.18
2023-07-18T22:53:57.970Z,18.14
2023-07-18T22:56:30.272Z,18.10
2023-07-18T22:59:01.489Z,18.06
2023-07-18T23:01:32.665Z,18.03
2023-07-18T23:04:03.755Z,18.01
2023-07-18T23:06:35.440Z,17.99
2023-07-18T23:09:06.685Z,17.97
2023-07-18T23:11:37.836Z,17.96
2023-07-18T23:14:09.521Z,17.94
2023-07-18T23:16:40.600Z,17.92
2023-07-18T23:19:12.093Z,17.91
2023-07-18T23:21:43.129Z,17.88
2023-07-18T23:24:14.122Z,17.86
2023-07-18T23:26:45.142Z,17.84
2023-07-18T23:29:16.258Z,17.83
2023-07-18T23:31:47.447Z,17.80
2023-07-18T23:34:18.507Z,17.78
2023-07-18T23:36:49.751Z,17.76
2023-07-18T23:39:21.471Z,17.75
2023-07-18T23:41:52.698Z,17.75
2023-07-18T23:44:23.740Z,17.76
2023-07-18T23:46:54.786Z,17.76
2023-07-18T23:49:26.134Z,17.76
2023-07-18T23:51:57.383Z,17.75
2023-07-18T23:54:28.525Z,17.77
2023-07-18T23:57:00.193Z,17.77
2023-07-18T23:59:31.430Z,17.78
